createdAt,value
2019-04-06T00:00:53.349Z,9.23
2019-04-06T00:05:55.190Z,8.57
2019-04-06T00:10:56.993Z,8.63
2019-04-06T00:15:58.738Z,8.27
2019-04-06T00:21:00.546Z,9.17
2019-04-06T00:26:02.279Z,8.50
2019-04-06T00:31:15.681Z,8.40
2019-04-06T00:36:17.429Z,8.93
2019-04-06T00:41:19.215Z,8.37
2019-04-06T00:46:20.964Z,8.60
2019-04-06T00:51:22.937Z,8.93
2019-04-06T00:56:24.744Z,9.17
2019-04-06T01:01:26.485Z,8.60
2019-04-06T01:06:28.201Z,8.23
2019-04-06T01:11:29.929Z,8.80
2019-04-06T01:16:31.757Z,9.57
2019-04-06T01:21:33.477Z,9.33
2019-04-06T01:26:35.242Z,9.10
2019-04-06T01:31:36.981Z,9.10
2019-04-06T01:36:38.770Z,9.37
2019-04-06T01:41:40.491Z,9.50
2019-04-06T01:46:42.325Z,8.87
2019-04-06T01:51:44.087Z,8.40
2019-04-06T01:56:45.881Z,9.03
2019-04-06T02:01:52.901Z,8.93
2019-04-06T02:06:54.737Z,9.17
2019-04-06T02:11:56.465Z,7.70
2019-04-06T02:16:58.285Z,8.80
2019-04-06T02:22:00.021Z,8.27
2019-04-06T02:27:01.859Z,9.13
2019-04-06T02:32:29.019Z,8.60
2019-04-06T02:37:50.278Z,8.83
2019-04-06T02:42:59.161Z,8.73
2019-04-06T02:48:01.007Z,9.43
2019-04-06T02:53:02.767Z,8.53
2019-04-06T02:58:04.626Z,8.30
2019-04-06T03:03:06.354Z,7.87
2019-04-06T03:08:08.283Z,8.43
2019-04-06T03:13:10.261Z,8.93
2019-04-06T03:18:12.040Z,8.97
2019-04-06T03:23:13.775Z,9.10
2019-04-06T03:28:15.598Z,9.73
2019-04-06T03:33:17.365Z,8.50
2019-04-06T03:38:19.090Z,9.73
2019-04-06T03:43:23.899Z,9.40
2019-04-06T03:48:25.667Z,9.27
2019-04-06T03:53:27.398Z,9.10
2019-04-06T03:58:29.211Z,9.40
2019-04-06T04:03:30.932Z,9.00
2019-04-06T04:08:32.683Z,9.27
2019-04-06T04:13:34.422Z,8.73
2019-04-06T04:18:36.233Z,7.70
2019-04-06T04:23:37.960Z,9.57
2019-04-06T04:28:39.776Z,9.03
2019-04-06T04:33:41.509Z,9.80
2019-04-06T04:38:43.342Z,9.60
2019-04-06T04:43:45.294Z,9.40
2019-04-06T04:48:47.194Z,8.43
2019-04-06T04:53:48.921Z,8.97
2019-04-06T04:58:50.773Z,9.87
2019-04-06T05:03:52.523Z,8.63
2019-04-06T05:08:54.258Z,9.87
2019-04-06T05:14:14.066Z,8.77
2019-04-06T05:19:15.874Z,9.10
2019-04-06T05:24:17.703Z,9.83
2019-04-06T05:29:19.447Z,8.63
2019-04-06T05:34:21.286Z,9.20
2019-04-06T05:39:23.046Z,9.23
2019-04-06T05:44:24.858Z,8.20
2019-04-06T05:49:26.642Z,7.60
2019-04-06T05:54:28.404Z,9.50
2019-04-06T05:59:30.138Z,7.30
2019-04-06T06:04:31.982Z,7.90
2019-04-06T06:09:33.749Z,9.60
2019-04-06T06:14:35.541Z,8.60
2019-04-06T06:19:38.497Z,8.63
2019-04-06T06:24:40.312Z,8.40
2019-04-06T06:29:42.054Z,8.53
2019-04-06T06:34:43.879Z,9.17
2019-04-06T06:39:45.740Z,8.37
2019-04-06T06:44:47.515Z,8.30
2019-04-06T06:49:49.249Z,6.83
2019-04-06T06:54:51.061Z,7.70
2019-04-06T06:59:52.841Z,8.73
2019-04-06T07:04:54.630Z,7.23
2019-04-06T07:10:04.438Z,8.87
2019-04-06T07:14:59.982Z,7.60
2019-04-06T07:20:01.737Z,7.27
2019-04-06T07:25:03.993Z,7.80
2019-04-06T07:30:05.827Z,7.77
2019-04-06T07:35:07.741Z,6.63
2019-04-06T07:40:10.485Z,6.77
2019-04-06T07:45:12.427Z,7.20
2019-04-06T07:50:14.142Z,8.60
2019-04-06T07:55:15.997Z,7.80
2019-04-06T08:00:17.747Z,6.73
2019-04-06T08:05:19.526Z,6.63
2019-04-06T08:10:21.370Z,6.33
2019-04-06T08:15:23.204Z,7.30
2019-04-06T08:20:24.961Z,6.90
2019-04-06T08:25:26.918Z,6.43
2019-04-06T08:30:28.795Z,7.60
2019-04-06T08:35:30.586Z,7.47
2019-04-06T08:40:32.334Z,7.17
2019-04-06T08:45:34.166Z,6.80
2019-04-06T08:50:35.956Z,6.17
2019-04-06T08:55:37.732Z,6.23
2019-04-06T09:00:39.481Z,6.57
2019-04-06T09:05:41.213Z,4.93
2019-04-06T09:10:42.946Z,5.80
2019-04-06T09:15:44.675Z,5.33
2019-04-06T09:20:46.473Z,5.50
2019-04-06T09:25:48.253Z,5.37
2019-04-06T09:30:50.035Z,6.20
2019-04-06T09:35:51.811Z,5.40
2019-04-06T09:40:53.615Z,5.00
2019-04-06T09:46:13.675Z,5.23
2019-04-06T09:51:41.845Z,5.53
2019-04-06T09:57:01.697Z,5.20
2019-04-06T10:02:16.622Z,4.83
2019-04-06T10:07:50.025Z,5.97
2019-04-06T10:13:05.441Z,5.23
2019-04-06T10:18:20.573Z,5.13
2019-04-06T10:23:40.813Z,5.27
2019-04-06T10:29:05.152Z,5.60
2019-04-06T10:34:24.721Z,6.33
2019-04-06T10:39:37.486Z,5.30
2019-04-06T10:44:53.790Z,6.30
2019-04-06T10:50:18.040Z,6.23
2019-04-06T10:55:32.053Z,4.87
2019-04-06T11:00:43.469Z,5.30
2019-04-06T11:06:14.059Z,5.03
2019-04-06T11:11:39.040Z,4.17
2019-04-06T11:17:00.252Z,5.40
2019-04-06T11:22:25.693Z,4.53
2019-04-06T11:27:45.581Z,4.93
2019-04-06T11:33:06.637Z,5.50
2019-04-06T11:38:27.741Z,6.57
2019-04-06T11:43:59.573Z,4.90
2019-04-06T11:49:18.251Z,5.73
2019-04-06T11:54:38.234Z,4.97
2019-04-06T11:59:59.650Z,5.73
2019-04-06T12:05:18.013Z,6.17
2019-04-06T12:10:27.877Z,5.43
2019-04-06T12:15:54.813Z,4.33
2019-04-06T12:21:24.609Z,6.17
2019-04-06T12:26:46.646Z,5.60
2019-04-06T12:32:07.842Z,5.43
2019-04-06T12:37:16.846Z,5.33
2019-04-06T12:42:38.619Z,5.47
2019-04-06T12:48:02.818Z,5.40
2019-04-06T12:53:30.394Z,5.13
2019-04-06T12:58:51.602Z,5.50
2019-04-06T13:04:11.410Z,5.70
2019-04-06T13:09:35.609Z,4.37
2019-04-06T13:14:55.677Z,5.10
2019-04-06T13:20:23.879Z,5.00
2019-04-06T13:25:54.140Z,5.83
2019-04-06T13:31:14.321Z,5.70
2019-04-06T13:36:23.173Z,5.23
2019-04-06T13:41:43.601Z,5.00
2019-04-06T13:46:56.358Z,5.20
2019-04-06T13:52:11.306Z,4.60
2019-04-06T13:57:32.518Z,5.97
2019-04-06T14:03:09.197Z,5.90
2019-04-06T14:08:33.086Z,5.90
2019-04-06T14:14:09.590Z,5.20
2019-04-06T14:19:32.481Z,5.23
2019-04-06T14:24:59.672Z,5.67
2019-04-06T14:30:23.155Z,5.53
2019-04-06T14:35:43.424Z,5.60
2019-04-06T14:41:03.451Z,5.83
2019-04-06T14:46:14.552Z,5.87
2019-04-06T14:51:38.746Z,5.03
2019-04-06T14:56:49.527Z,5.10
2019-04-06T15:02:14.017Z,5.27
2019-04-06T15:07:33.792Z,6.17
2019-04-06T15:12:57.845Z,5.77
2019-04-06T15:18:08.434Z,6.27
2019-04-06T15:23:29.950Z,5.73
2019-04-06T15:28:57.717Z,6.43
2019-04-06T15:34:31.062Z,6.63
2019-04-06T15:39:52.474Z,7.77
2019-04-06T15:45:14.120Z,6.40
2019-04-06T15:50:38.035Z,5.40
2019-04-06T15:55:48.524Z,6.77
2019-04-06T16:01:18.898Z,6.57
2019-04-06T16:06:43.025Z,6.20
2019-04-06T16:12:06.156Z,7.63
2019-04-06T16:17:36.464Z,7.13
2019-04-06T16:22:56.218Z,6.53
2019-04-06T16:28:09.260Z,6.47
2019-04-06T16:33:20.133Z,7.07
2019-04-06T16:38:41.437Z,6.77
2019-04-06T16:44:02.632Z,6.50
2019-04-06T16:49:22.416Z,6.77
2019-04-06T16:54:46.399Z,7.00
2019-04-06T17:00:19.562Z,6.90
2019-04-06T17:05:41.041Z,6.83
2019-04-06T17:11:05.270Z,7.20
2019-04-06T17:16:25.604Z,6.10
2019-04-06T17:21:45.532Z,6.80
2019-04-06T17:27:05.458Z,7.63
2019-04-06T17:32:15.757Z,6.63
2019-04-06T17:37:26.537Z,7.77
2019-04-06T17:42:33.854Z,7.63
2019-04-06T17:47:58.093Z,7.93
2019-04-06T17:53:10.565Z,7.90
2019-04-06T17:58:19.703Z,7.87
2019-04-06T18:03:39.599Z,7.90
2019-04-06T18:08:59.569Z,8.13
2019-04-06T18:14:01.353Z,7.17
2019-04-06T18:19:03.482Z,7.80
2019-04-06T18:24:05.472Z,8.50
2019-04-06T18:29:07.149Z,8.57
2019-04-06T18:34:09.257Z,8.70
2019-04-06T18:39:11.559Z,8.30
2019-04-06T18:44:13.453Z,10.57
2019-04-06T18:49:15.209Z,11.57
2019-04-06T18:54:17.005Z,10.63
2019-04-06T18:59:18.737Z,10.17
2019-04-06T19:04:20.558Z,9.57
2019-04-06T19:09:24.670Z,9.73
2019-04-06T19:14:25.939Z,10.00
2019-04-06T19:19:27.594Z,10.07
2019-04-06T19:24:29.681Z,10.33
2019-04-06T19:29:31.727Z,10.20
2019-04-06T19:34:33.665Z,9.73
2019-04-06T19:39:35.422Z,9.97
2019-04-06T19:44:37.298Z,12.87
2019-04-06T19:49:38.967Z,14.33
2019-04-06T19:54:41.352Z,13.30
2019-04-06T19:59:43.184Z,13.87
2019-04-06T20:04:44.954Z,14.30
2019-04-06T20:09:46.688Z,13.63
2019-04-06T20:14:48.499Z,14.00
2019-04-06T20:19:50.742Z,13.23
2019-04-06T20:24:53.128Z,13.20
2019-04-06T20:29:55.137Z,12.77
2019-04-06T20:34:57.377Z,12.33
2019-04-06T20:39:59.329Z,13.47
2019-04-06T20:45:01.685Z,14.03
2019-04-06T20:50:03.780Z,14.33
2019-04-06T20:55:05.797Z,14.17
2019-04-06T21:00:08.669Z,15.03
2019-04-06T21:05:10.463Z,14.50
2019-04-06T21:10:12.205Z,15.53
2019-04-06T21:15:18.954Z,13.70
2019-04-06T21:20:17.680Z,15.57
2019-04-06T21:25:19.514Z,15.30
2019-04-06T21:30:21.396Z,12.90
2019-04-06T21:35:23.601Z,13.57
2019-04-06T21:40:25.426Z,13.20
2019-04-06T21:45:27.240Z,13.53
2019-04-06T21:50:29.296Z,13.37
2019-04-06T21:55:31.215Z,14.17
2019-04-06T22:00:40.027Z,13.50
2019-04-06T22:05:42.091Z,13.03
2019-04-06T22:10:43.892Z,13.77
2019-04-06T22:15:46.146Z,12.87
2019-04-06T22:20:48.068Z,39.63
2019-04-06T22:25:50.440Z,14.13
2019-04-06T22:30:52.434Z,14.47
2019-04-06T22:35:54.199Z,14.20
2019-04-06T22:40:56.041Z,15.57
2019-04-06T22:45:57.705Z,15.37
2019-04-06T22:51:00.115Z,14.53
2019-04-06T22:56:02.186Z,15.67
2019-04-06T23:01:08.062Z,14.90
2019-04-06T23:06:12.962Z,13.63
2019-04-06T23:11:14.735Z,14.37
2019-04-06T23:16:17.028Z,14.80
2019-04-06T23:21:19.057Z,16.00
2019-04-06T23:26:21.400Z,15.70
2019-04-06T23:31:23.277Z,15.77
2019-04-06T23:36:25.064Z,16.37
2019-04-06T23:41:26.857Z,15.47
2019-04-06T23:46:28.911Z,15.50
2019-04-06T23:51:31.389Z,16.17
2019-04-06T23:56:33.457Z,16.30
